sensor_id;sensor_type;location;lat;lon;timestamp;temperature;humidity
24207;DHT22;12351;52.284;9.160;2023-02-26T00:02:15;-1.00;99.90
24207;DHT22;12351;52.284;9.160;2023-02-26T00:05:05;-1.00;99.90
24207;DHT22;12351;52.284;9.160;2023-02-26T00:07:54;-0.90;99.90
24207;DHT22;12351;52.284;9.160;2023-02-26T00:10:45;-1.00;99.90
24207;DHT22;12351;52.284;9.160;2023-02-26T00:13:37;-0.90;99.90
24207;DHT22;12351;52.284;9.160;2023-02-26T00:16:29;-1.10;94.10
24207;DHT22;12351;52.284;9.160;2023-02-26T00:19:21;-1.10;92.10
24207;DHT22;12351;52.284;9.160;2023-02-26T00:22:08;-1.10;91.60
24207;DHT22;12351;52.284;9.160;2023-02-26T00:24:58;-1.20;76.70
24207;DHT22;12351;52.284;9.160;2023-02-26T00:27:49;-1.20;63.40
24207;DHT22;12351;52.284;9.160;2023-02-26T00:30:41;-1.20;54.30
24207;DHT22;12351;52.284;9.160;2023-02-26T00:33:31;-1.20;60.70
24207;DHT22;12351;52.284;9.160;2023-02-26T00:36:23;-1.20;62.30
24207;DHT22;12351;52.284;9.160;2023-02-26T00:42:04;-1.30;86.60
24207;DHT22;12351;52.284;9.160;2023-02-26T00:44:52;-1.30;81.10
24207;DHT22;12351;52.284;9.160;2023-02-26T00:47:46;-1.30;85.60
24207;DHT22;12351;52.284;9.160;2023-02-26T00:50:34;-1.30;90.90
24207;DHT22;12351;52.284;9.160;2023-02-26T00:53:26;-1.30;93.20
24207;DHT22;12351;52.284;9.160;2023-02-26T00:56:14;-1.30;91.00
24207;DHT22;12351;52.284;9.160;2023-02-26T00:59:02;-1.30;90.00
24207;DHT22;12351;52.284;9.160;2023-02-26T01:01:55;-1.30;85.30
24207;DHT22;12351;52.284;9.160;2023-02-26T01:04:45;-1.30;90.40
24207;DHT22;12351;52.284;9.160;2023-02-26T01:10:28;-1.20;85.40
24207;DHT22;12351;52.284;9.160;2023-02-26T01:13:19;-1.20;81.80
24207;DHT22;12351;52.284;9.160;2023-02-26T01:16:08;-1.10;86.90
24207;DHT22;12351;52.284;9.160;2023-02-26T01:21:48;-1.20;44.50
24207;DHT22;12351;52.284;9.160;2023-02-26T01:24:37;-1.20;36.00
24207;DHT22;12351;52.284;9.160;2023-02-26T01:27:27;-1.10;34.20
24207;DHT22;12351;52.284;9.160;2023-02-26T01:30:19;-1.20;32.30
24207;DHT22;12351;52.284;9.160;2023-02-26T01:38:51;-1.20;19.40
24207;DHT22;12351;52.284;9.160;2023-02-26T01:41:40;-1.20;22.20
24207;DHT22;12351;52.284;9.160;2023-02-26T01:44:29;-1.20;21.90
24207;DHT22;12351;52.284;9.160;2023-02-26T01:47:22;-1.20;28.50
24207;DHT22;12351;52.284;9.160;2023-02-26T01:50:11;-1.10;29.30
24207;DHT22;12351;52.284;9.160;2023-02-26T01:55:52;-1.00;26.90
24207;DHT22;12351;52.284;9.160;2023-02-26T01:58:42;-1.00;21.90
24207;DHT22;12351;52.284;9.160;2023-02-26T02:01:31;-1.00;17.40
24207;DHT22;12351;52.284;9.160;2023-02-26T02:04:21;-1.00;16.50
24207;DHT22;12351;52.284;9.160;2023-02-26T02:07:15;-1.00;16.90
24207;DHT22;12351;52.284;9.160;2023-02-26T02:10:04;-0.90;21.40
24207;DHT22;12351;52.284;9.160;2023-02-26T02:15:46;-1.00;20.80
24207;DHT22;12351;52.284;9.160;2023-02-26T02:18:38;-1.10;8.80
24207;DHT22;12351;52.284;9.160;2023-02-26T02:24:22;-1.00;21.00
24207;DHT22;12351;52.284;9.160;2023-02-26T02:27:11;-0.90;25.40
24207;DHT22;12351;52.284;9.160;2023-02-26T02:32:56;-1.00;14.70
24207;DHT22;12351;52.284;9.160;2023-02-26T02:35:45;-1.00;19.60
24207;DHT22;12351;52.284;9.160;2023-02-26T02:38:37;-1.00;26.20
24207;DHT22;12351;52.284;9.160;2023-02-26T02:41:29;-1.00;30.00
24207;DHT22;12351;52.284;9.160;2023-02-26T02:44:17;-1.10;32.10
24207;DHT22;12351;52.284;9.160;2023-02-26T02:47:09;-1.20;36.40
24207;DHT22;12351;52.284;9.160;2023-02-26T02:50:00;-1.10;45.70
24207;DHT22;12351;52.284;9.160;2023-02-26T02:58:19;-1.10;26.80
24207;DHT22;12351;52.284;9.160;2023-02-26T03:01:09;-1.10;35.60
24207;DHT22;12351;52.284;9.160;2023-02-26T03:06:49;-1.10;39.50
24207;DHT22;12351;52.284;9.160;2023-02-26T03:09:39;-1.00;48.60
24207;DHT22;12351;52.284;9.160;2023-02-26T03:12:32;-1.00;42.30
24207;DHT22;12351;52.284;9.160;2023-02-26T03:35:25;-1.10;70.70
24207;DHT22;12351;52.284;9.160;2023-02-26T03:38:17;-1.00;75.50
24207;DHT22;12351;52.284;9.160;2023-02-26T03:41:08;-1.00;73.00
24207;DHT22;12351;52.284;9.160;2023-02-26T03:43:56;-1.00;78.20
24207;DHT22;12351;52.284;9.160;2023-02-26T03:46:50;-1.00;86.80
24207;DHT22;12351;52.284;9.160;2023-02-26T03:52:29;-0.90;93.00
24207;DHT22;12351;52.284;9.160;2023-02-26T03:55:22;-1.00;82.00
24207;DHT22;12351;52.284;9.160;2023-02-26T03:58:13;-1.00;92.40
24207;DHT22;12351;52.284;9.160;2023-02-26T04:01:04;-0.90;88.10
24207;DHT22;12351;52.284;9.160;2023-02-26T04:06:43;-1.00;81.20
24207;DHT22;12351;52.284;9.160;2023-02-26T04:09:36;-1.00;77.90
24207;DHT22;12351;52.284;9.160;2023-02-26T04:12:26;-1.10;59.10
24207;DHT22;12351;52.284;9.160;2023-02-26T04:15:16;-1.10;60.80
24207;DHT22;12351;52.284;9.160;2023-02-26T04:18:06;-1.10;67.10
24207;DHT22;12351;52.284;9.160;2023-02-26T04:20:56;-1.10;62.40
24207;DHT22;12351;52.284;9.160;2023-02-26T04:23:44;-1.10;61.70
24207;DHT22;12351;52.284;9.160;2023-02-26T04:26:36;-1.20;80.00
24207;DHT22;12351;52.284;9.160;2023-02-26T04:29:22;-1.20;73.00
24207;DHT22;12351;52.284;9.160;2023-02-26T04:32:11;-1.20;68.90
24207;DHT22;12351;52.284;9.160;2023-02-26T04:35:02;-1.30;59.40
24207;DHT22;12351;52.284;9.160;2023-02-26T04:37:52;-1.30;71.60
24207;DHT22;12351;52.284;9.160;2023-02-26T04:40:41;-1.30;58.80
24207;DHT22;12351;52.284;9.160;2023-02-26T04:43:29;-1.30;56.40
24207;DHT22;12351;52.284;9.160;2023-02-26T04:46:19;-1.30;51.40
24207;DHT22;12351;52.284;9.160;2023-02-26T04:49:07;-1.40;44.40
24207;DHT22;12351;52.284;9.160;2023-02-26T04:51:57;-1.40;48.00
24207;DHT22;12351;52.284;9.160;2023-02-26T04:54:49;-1.50;55.10
24207;DHT22;12351;52.284;9.160;2023-02-26T04:57:39;-1.40;64.80
24207;DHT22;12351;52.284;9.160;2023-02-26T05:00:26;-1.50;43.00
24207;DHT22;12351;52.284;9.160;2023-02-26T05:03:18;-1.50;44.20
24207;DHT22;12351;52.284;9.160;2023-02-26T05:06:06;-1.50;38.20
24207;DHT22;12351;52.284;9.160;2023-02-26T05:08:57;-1.50;46.30
24207;DHT22;12351;52.284;9.160;2023-02-26T05:11:47;-1.60;46.90
24207;DHT22;12351;52.284;9.160;2023-02-26T05:14:34;-1.70;53.70
24207;DHT22;12351;52.284;9.160;2023-02-26T05:17:24;-1.70;59.50
24207;DHT22;12351;52.284;9.160;2023-02-26T05:20:18;-1.60;60.50
24207;DHT22;12351;52.284;9.160;2023-02-26T05:23:07;-1.60;52.80
24207;DHT22;12351;52.284;9.160;2023-02-26T05:25:58;-1.70;45.90
24207;DHT22;12351;52.284;9.160;2023-02-26T05:28:50;-1.70;54.90
24207;DHT22;12351;52.284;9.160;2023-02-26T05:31:43;-1.70;51.50
24207;DHT22;12351;52.284;9.160;2023-02-26T05:34:32;-1.80;51.20
24207;DHT22;12351;52.284;9.160;2023-02-26T05:37:22;-1.90;77.70
24207;DHT22;12351;52.284;9.160;2023-02-26T05:40:10;-1.80;98.70
24207;DHT22;12351;52.284;9.160;2023-02-26T05:43:02;-1.80;99.90
24207;DHT22;12351;52.284;9.160;2023-02-26T05:45:51;-1.70;99.70
24207;DHT22;12351;52.284;9.160;2023-02-26T05:48:40;-1.80;95.10
24207;DHT22;12351;52.284;9.160;2023-02-26T05:51:33;-1.80;99.00
24207;DHT22;12351;52.284;9.160;2023-02-26T05:54:21;-1.80;99.90
24207;DHT22;12351;52.284;9.160;2023-02-26T05:57:11;-1.80;99.90
24207;DHT22;12351;52.284;9.160;2023-02-26T06:00:03;-1.90;99.90
24207;DHT22;12351;52.284;9.160;2023-02-26T06:02:52;-1.90;99.90
24207;DHT22;12351;52.284;9.160;2023-02-26T06:05:42;-2.00;99.90
24207;DHT22;12351;52.284;9.160;2023-02-26T06:08:31;-1.90;99.90
24207;DHT22;12351;52.284;9.160;2023-02-26T06:11:21;-1.90;99.90
24207;DHT22;12351;52.284;9.160;2023-02-26T06:14:11;-2.00;99.90
24207;DHT22;12351;52.284;9.160;2023-02-26T06:17:02;-2.00;99.90
24207;DHT22;12351;52.284;9.160;2023-02-26T06:19:53;-2.00;99.90
24207;DHT22;12351;52.284;9.160;2023-02-26T06:22:46;-2.00;99.90
24207;DHT22;12351;52.284;9.160;2023-02-26T06:25:35;-2.00;99.90
24207;DHT22;12351;52.284;9.160;2023-02-26T06:28:26;-2.10;99.90
24207;DHT22;12351;52.284;9.160;2023-02-26T06:31:16;-2.10;99.90
24207;DHT22;12351;52.284;9.160;2023-02-26T06:34:07;-2.00;99.90
24207;DHT22;12351;52.284;9.160;2023-02-26T06:36:58;-2.10;99.90
24207;DHT22;12351;52.284;9.160;2023-02-26T06:39:52;-2.00;99.90
24207;DHT22;12351;52.284;9.160;2023-02-26T06:42:42;-1.90;99.90
24207;DHT22;12351;52.284;9.160;2023-02-26T06:45:34;-2.00;99.90
24207;DHT22;12351;52.284;9.160;2023-02-26T06:48:23;-2.00;99.90
24207;DHT22;12351;52.284;9.160;2023-02-26T06:51:16;-2.10;99.90
24207;DHT22;12351;52.284;9.160;2023-02-26T06:54:03;-2.10;99.90
24207;DHT22;12351;52.284;9.160;2023-02-26T06:56:54;-2.10;99.90
24207;DHT22;12351;52.284;9.160;2023-02-26T06:59:49;-2.10;99.90
24207;DHT22;12351;52.284;9.160;2023-02-26T07:02:38;-2.00;99.90
24207;DHT22;12351;52.284;9.160;2023-02-26T07:05:29;-2.00;99.90
24207;DHT22;12351;52.284;9.160;2023-02-26T07:08:17;-2.10;99.90
24207;DHT22;12351;52.284;9.160;2023-02-26T07:11:05;-2.00;99.90
24207;DHT22;12351;52.284;9.160;2023-02-26T07:13:57;-2.00;99.90
24207;DHT22;12351;52.284;9.160;2023-02-26T07:16:47;-1.90;99.90
24207;DHT22;12351;52.284;9.160;2023-02-26T07:19:38;-1.90;99.90
24207;DHT22;12351;52.284;9.160;2023-02-26T07:22:31;-1.90;99.90
24207;DHT22;12351;52.284;9.160;2023-02-26T07:25:21;-1.80;99.90
24207;DHT22;12351;52.284;9.160;2023-02-26T07:28:12;-1.80;99.90
24207;DHT22;12351;52.284;9.160;2023-02-26T07:31:03;-1.70;99.90
24207;DHT22;12351;52.284;9.160;2023-02-26T07:33:51;-1.60;99.90
24207;DHT22;12351;52.284;9.160;2023-02-26T07:36:41;-1.70;99.90
24207;DHT22;12351;52.284;9.160;2023-02-26T07:39:33;-1.60;99.90
24207;DHT22;12351;52.284;9.160;2023-02-26T07:42:23;-1.50;99.90
24207;DHT22;12351;52.284;9.160;2023-02-26T07:45:13;-1.50;99.90
24207;DHT22;12351;52.284;9.160;2023-02-26T07:48:07;-1.40;99.90
24207;DHT22;12351;52.284;9.160;2023-02-26T07:51:00;-1.30;99.90
24207;DHT22;12351;52.284;9.160;2023-02-26T07:53:46;-1.50;91.60
24207;DHT22;12351;52.284;9.160;2023-02-26T07:56:37;-1.50;99.90
24207;DHT22;12351;52.284;9.160;2023-02-26T07:59:28;-1.30;99.90
24207;DHT22;12351;52.284;9.160;2023-02-26T08:02:20;-1.20;99.90
24207;DHT22;12351;52.284;9.160;2023-02-26T08:05:08;-1.10;97.80
24207;DHT22;12351;52.284;9.160;2023-02-26T08:07:58;-1.10;73.00
24207;DHT22;12351;52.284;9.160;2023-02-26T08:10:47;-1.10;55.40
24207;DHT22;12351;52.284;9.160;2023-02-26T08:13:39;-1.10;53.30
24207;DHT22;12351;52.284;9.160;2023-02-26T08:16:28;-1.00;53.40
24207;DHT22;12351;52.284;9.160;2023-02-26T08:19:18;-0.90;23.30
24207;DHT22;12351;52.284;9.160;2023-02-26T08:22:11;-0.90;29.40
24207;DHT22;12351;52.284;9.160;2023-02-26T08:25:00;-0.70;34.00
24207;DHT22;12351;52.284;9.160;2023-02-26T08:27:49;-0.50;19.30
24207;DHT22;12351;52.284;9.160;2023-02-26T08:30:37;-0.50;4.20
24207;DHT22;12351;52.284;9.160;2023-02-26T08:33:28;-0.40;1.00
24207;DHT22;12351;52.284;9.160;2023-02-26T08:36:21;-0.30;1.00
24207;DHT22;12351;52.284;9.160;2023-02-26T08:39:13;-0.30;1.00
24207;DHT22;12351;52.284;9.160;2023-02-26T08:42:01;-0.30;1.00
24207;DHT22;12351;52.284;9.160;2023-02-26T08:44:54;-0.40;1.00
24207;DHT22;12351;52.284;9.160;2023-02-26T08:47:43;-0.30;1.00
24207;DHT22;12351;52.284;9.160;2023-02-26T08:50:32;-0.30;1.00
24207;DHT22;12351;52.284;9.160;2023-02-26T08:53:24;-0.30;1.00
24207;DHT22;12351;52.284;9.160;2023-02-26T08:56:17;-0.30;1.00
24207;DHT22;12351;52.284;9.160;2023-02-26T08:59:04;0.00;1.00
24207;DHT22;12351;52.284;9.160;2023-02-26T09:01:57;0.10;1.00
24207;DHT22;12351;52.284;9.160;2023-02-26T09:04:48;0.10;1.00
24207;DHT22;12351;52.284;9.160;2023-02-26T09:07:38;0.00;1.00
24207;DHT22;12351;52.284;9.160;2023-02-26T09:10:26;0.10;1.00
24207;DHT22;12351;52.284;9.160;2023-02-26T09:13:18;0.10;99.90
24207;DHT22;12351;52.284;9.160;2023-02-26T09:16:07;0.10;99.90
24207;DHT22;12351;52.284;9.160;2023-02-26T09:18:57;0.20;99.90
24207;DHT22;12351;52.284;9.160;2023-02-26T09:21:47;0.20;99.90
24207;DHT22;12351;52.284;9.160;2023-02-26T09:24:36;0.30;99.90
24207;DHT22;12351;52.284;9.160;2023-02-26T09:27:27;0.30;1.00
24207;DHT22;12351;52.284;9.160;2023-02-26T09:30:16;0.30;1.00
24207;DHT22;12351;52.284;9.160;2023-02-26T09:33:06;0.40;99.90
24207;DHT22;12351;52.284;9.160;2023-02-26T09:35:55;0.40;1.00
24207;DHT22;12351;52.284;9.160;2023-02-26T09:38:47;0.40;99.90
24207;DHT22;12351;52.284;9.160;2023-02-26T09:41:39;0.30;1.00
24207;DHT22;12351;52.284;9.160;2023-02-26T09:44:29;0.30;99.90
24207;DHT22;12351;52.284;9.160;2023-02-26T09:47:21;0.50;1.00
24207;DHT22;12351;52.284;9.160;2023-02-26T09:50:15;0.60;1.00
24207;DHT22;12351;52.284;9.160;2023-02-26T09:53:06;0.70;1.00
24207;DHT22;12351;52.284;9.160;2023-02-26T09:55:57;0.80;49.60
24207;DHT22;12351;52.284;9.160;2023-02-26T09:58:50;0.70;1.00
24207;DHT22;12351;52.284;9.160;2023-02-26T10:10:16;0.80;1.80
24207;DHT22;12351;52.284;9.160;2023-02-26T10:13:03;0.90;99.90
24207;DHT22;12351;52.284;9.160;2023-02-26T10:15:56;1.00;99.90
24207;DHT22;12351;52.284;9.160;2023-02-26T10:18:50;1.10;1.00
24207;DHT22;12351;52.284;9.160;2023-02-26T10:24:31;1.30;99.90
24207;DHT22;12351;52.284;9.160;2023-02-26T10:27:21;1.40;99.90
24207;DHT22;12351;52.284;9.160;2023-02-26T10:30:13;1.40;1.00
24207;DHT22;12351;52.284;9.160;2023-02-26T10:35:51;1.40;1.00
24207;DHT22;12351;52.284;9.160;2023-02-26T10:38:41;1.40;1.00
24207;DHT22;12351;52.284;9.160;2023-02-26T10:41:32;1.40;1.00
24207;DHT22;12351;52.284;9.160;2023-02-26T10:44:23;1.40;99.90
24207;DHT22;12351;52.284;9.160;2023-02-26T10:47:17;1.50;99.90
24207;DHT22;12351;52.284;9.160;2023-02-26T10:50:04;1.50;99.90
24207;DHT22;12351;52.284;9.160;2023-02-26T10:52:55;1.50;99.90
24207;DHT22;12351;52.284;9.160;2023-02-26T10:55:47;1.30;99.90
24207;DHT22;12351;52.284;9.160;2023-02-26T10:58:34;1.60;1.00
24207;DHT22;12351;52.284;9.160;2023-02-26T11:01:27;1.70;99.90
24207;DHT22;12351;52.284;9.160;2023-02-26T11:04:19;1.50;99.90
24207;DHT22;12351;52.284;9.160;2023-02-26T11:07:11;1.70;99.90
24207;DHT22;12351;52.284;9.160;2023-02-26T11:10:01;1.90;99.90
24207;DHT22;12351;52.284;9.160;2023-02-26T11:12:53;1.70;99.90
24207;DHT22;12351;52.284;9.160;2023-02-26T11:15:45;1.80;99.90
24207;DHT22;12351;52.284;9.160;2023-02-26T11:18:38;1.90;99.90
24207;DHT22;12351;52.284;9.160;2023-02-26T11:21:28;2.10;99.90
24207;DHT22;12351;52.284;9.160;2023-02-26T11:24:20;2.20;99.90
24207;DHT22;12351;52.284;9.160;2023-02-26T11:27:12;2.30;99.90
24207;DHT22;12351;52.284;9.160;2023-02-26T11:30:04;2.50;99.90
24207;DHT22;12351;52.284;9.160;2023-02-26T11:32:52;2.60;99.90
24207;DHT22;12351;52.284;9.160;2023-02-26T11:35:44;2.60;99.90
24207;DHT22;12351;52.284;9.160;2023-02-26T11:38:34;2.30;99.90
24207;DHT22;12351;52.284;9.160;2023-02-26T11:41:25;1.90;99.90
24207;DHT22;12351;52.284;9.160;2023-02-26T11:44:17;2.00;99.90
24207;DHT22;12351;52.284;9.160;2023-02-26T11:52:54;2.30;99.90
24207;DHT22;12351;52.284;9.160;2023-02-26T11:55:42;2.60;99.90
24207;DHT22;12351;52.284;9.160;2023-02-26T11:58:33;2.50;99.90
24207;DHT22;12351;52.284;9.160;2023-02-26T12:01:25;2.60;99.90
24207;DHT22;12351;52.284;9.160;2023-02-26T12:04:17;2.70;99.90
24207;DHT22;12351;52.284;9.160;2023-02-26T12:07:04;2.70;99.90
24207;DHT22;12351;52.284;9.160;2023-02-26T12:09:55;2.80;99.90
24207;DHT22;12351;52.284;9.160;2023-02-26T12:18:29;2.10;77.10
24207;DHT22;12351;52.284;9.160;2023-02-26T12:41:12;3.50;70.70
24207;DHT22;12351;52.284;9.160;2023-02-26T12:44:01;3.10;53.80
24207;DHT22;12351;52.284;9.160;2023-02-26T12:46:53;3.10;86.40
24207;DHT22;12351;52.284;9.160;2023-02-26T13:06:48;3.50;38.60
24207;DHT22;12351;52.284;9.160;2023-02-26T13:18:10;3.40;1.00
24207;DHT22;12351;52.284;9.160;2023-02-26T13:20:59;3.60;1.00
24207;DHT22;12351;52.284;9.160;2023-02-26T13:26:38;3.50;1.00
24207;DHT22;12351;52.284;9.160;2023-02-26T13:29:26;3.40;1.00
24207;DHT22;12351;52.284;9.160;2023-02-26T13:32:17;3.70;1.00
24207;DHT22;12351;52.284;9.160;2023-02-26T13:35:13;3.60;1.00
24207;DHT22;12351;52.284;9.160;2023-02-26T13:37:59;3.80;1.00
24207;DHT22;12351;52.284;9.160;2023-02-26T13:40:53;4.10;1.00
24207;DHT22;12351;52.284;9.160;2023-02-26T13:46:32;3.80;1.00
24207;DHT22;12351;52.284;9.160;2023-02-26T13:49:21;3.70;1.00
24207;DHT22;12351;52.284;9.160;2023-02-26T13:52:21;3.40;1.00
24207;DHT22;12351;52.284;9.160;2023-02-26T13:55:00;3.20;1.00
24207;DHT22;12351;52.284;9.160;2023-02-26T13:57:50;3.60;1.00
24207;DHT22;12351;52.284;9.160;2023-02-26T14:00:44;3.70;1.00
24207;DHT22;12351;52.284;9.160;2023-02-26T14:03:35;3.60;1.00
24207;DHT22;12351;52.284;9.160;2023-02-26T14:06:24;4.00;1.00
24207;DHT22;12351;52.284;9.160;2023-02-26T14:12:13;3.70;1.00
24207;DHT22;12351;52.284;9.160;2023-02-26T14:17:47;3.80;1.00
24207;DHT22;12351;52.284;9.160;2023-02-26T14:20:36;3.70;1.00
24207;DHT22;12351;52.284;9.160;2023-02-26T14:23:30;4.10;1.00
24207;DHT22;12351;52.284;9.160;2023-02-26T14:26:19;4.20;1.00
24207;DHT22;12351;52.284;9.160;2023-02-26T14:32:03;4.20;1.00
24207;DHT22;12351;52.284;9.160;2023-02-26T14:34:54;4.00;1.00
24207;DHT22;12351;52.284;9.160;2023-02-26T14:37:48;4.00;1.00
24207;DHT22;12351;52.284;9.160;2023-02-26T14:40:36;3.70;1.00
24207;DHT22;12351;52.284;9.160;2023-02-26T14:46:18;4.20;1.00
24207;DHT22;12351;52.284;9.160;2023-02-26T14:49:13;3.90;1.00
24207;DHT22;12351;52.284;9.160;2023-02-26T14:52:04;3.80;1.00
24207;DHT22;12351;52.284;9.160;2023-02-26T14:54:56;3.70;1.00
24207;DHT22;12351;52.284;9.160;2023-02-26T15:06:19;3.70;1.00
24207;DHT22;12351;52.284;9.160;2023-02-26T15:09:10;3.70;1.00
24207;DHT22;12351;52.284;9.160;2023-02-26T15:26:16;3.70;1.00
24207;DHT22;12351;52.284;9.160;2023-02-26T15:29:06;3.70;1.00
24207;DHT22;12351;52.284;9.160;2023-02-26T15:31:54;3.50;1.00
24207;DHT22;12351;52.284;9.160;2023-02-26T15:34:45;3.40;1.00
24207;DHT22;12351;52.284;9.160;2023-02-26T15:37:38;3.50;1.00
24207;DHT22;12351;52.284;9.160;2023-02-26T15:40:30;3.30;1.00
24207;DHT22;12351;52.284;9.160;2023-02-26T15:43:20;3.30;1.00
24207;DHT22;12351;52.284;9.160;2023-02-26T15:46:09;3.30;1.00
24207;DHT22;12351;52.284;9.160;2023-02-26T15:49:00;3.40;1.00
24207;DHT22;12351;52.284;9.160;2023-02-26T15:51:49;3.30;1.00
24207;DHT22;12351;52.284;9.160;2023-02-26T15:54:42;3.30;1.00
24207;DHT22;12351;52.284;9.160;2023-02-26T15:57:31;3.30;1.00
24207;DHT22;12351;52.284;9.160;2023-02-26T16:00:22;3.10;1.00
24207;DHT22;12351;52.284;9.160;2023-02-26T16:03:11;3.30;1.00
24207;DHT22;12351;52.284;9.160;2023-02-26T16:05:59;3.10;1.00
24207;DHT22;12351;52.284;9.160;2023-02-26T16:08:50;3.00;1.00
24207;DHT22;12351;52.284;9.160;2023-02-26T16:11:41;3.10;1.00
24207;DHT22;12351;52.284;9.160;2023-02-26T16:14:32;3.20;1.00
24207;DHT22;12351;52.284;9.160;2023-02-26T16:17:23;3.10;1.00
24207;DHT22;12351;52.284;9.160;2023-02-26T16:20:14;3.20;1.00
24207;DHT22;12351;52.284;9.160;2023-02-26T16:23:03;3.20;1.00
24207;DHT22;12351;52.284;9.160;2023-02-26T16:25:53;3.10;1.00
24207;DHT22;12351;52.284;9.160;2023-02-26T16:28:44;2.90;1.00
24207;DHT22;12351;52.284;9.160;2023-02-26T16:31:37;2.80;1.00
24207;DHT22;12351;52.284;9.160;2023-02-26T16:37:26;2.90;1.00
24207;DHT22;12351;52.284;9.160;2023-02-26T16:40:19;2.80;1.00
24207;DHT22;12351;52.284;9.160;2023-02-26T16:45:56;2.70;1.00
24207;DHT22;12351;52.284;9.160;2023-02-26T16:51:39;2.70;17.10
24207;DHT22;12351;52.284;9.160;2023-02-26T16:57:23;2.60;53.90
24207;DHT22;12351;52.284;9.160;2023-02-26T17:00:17;2.60;92.60
24207;DHT22;12351;52.284;9.160;2023-02-26T17:03:08;2.60;99.90
24207;DHT22;12351;52.284;9.160;2023-02-26T17:11:28;2.50;99.90
24207;DHT22;12351;52.284;9.160;2023-02-26T17:17:10;2.40;99.90
24207;DHT22;12351;52.284;9.160;2023-02-26T17:20:00;2.50;99.90
24207;DHT22;12351;52.284;9.160;2023-02-26T17:22:52;2.50;99.90
24207;DHT22;12351;52.284;9.160;2023-02-26T17:25:46;2.50;99.90
24207;DHT22;12351;52.284;9.160;2023-02-26T17:28:36;2.50;99.90
24207;DHT22;12351;52.284;9.160;2023-02-26T17:31:26;2.50;99.90
24207;DHT22;12351;52.284;9.160;2023-02-26T17:34:20;2.50;99.90
24207;DHT22;12351;52.284;9.160;2023-02-26T17:37:05;2.40;99.90
24207;DHT22;12351;52.284;9.160;2023-02-26T17:39:54;2.40;99.90
24207;DHT22;12351;52.284;9.160;2023-02-26T17:42:46;2.40;99.90
24207;DHT22;12351;52.284;9.160;2023-02-26T17:45:37;2.40;99.90
24207;DHT22;12351;52.284;9.160;2023-02-26T17:48:26;2.40;99.90
24207;DHT22;12351;52.284;9.160;2023-02-26T17:51:15;2.40;99.90
24207;DHT22;12351;52.284;9.160;2023-02-26T17:54:07;2.40;99.90
24207;DHT22;12351;52.284;9.160;2023-02-26T17:56:58;2.30;99.90
24207;DHT22;12351;52.284;9.160;2023-02-26T17:59:47;2.30;99.90
24207;DHT22;12351;52.284;9.160;2023-02-26T18:02:39;2.30;99.90
24207;DHT22;12351;52.284;9.160;2023-02-26T18:05:31;2.30;1.00
24207;DHT22;12351;52.284;9.160;2023-02-26T18:11:13;2.30;1.00
24207;DHT22;12351;52.284;9.160;2023-02-26T18:14:01;2.20;1.00
24207;DHT22;12351;52.284;9.160;2023-02-26T18:16:51;2.20;1.00
24207;DHT22;12351;52.284;9.160;2023-02-26T18:19:44;2.20;1.00
24207;DHT22;12351;52.284;9.160;2023-02-26T18:22:33;2.10;1.00
24207;DHT22;12351;52.284;9.160;2023-02-26T18:25:24;2.10;99.90
24207;DHT22;12351;52.284;9.160;2023-02-26T18:31:02;2.10;99.90
24207;DHT22;12351;52.284;9.160;2023-02-26T18:33:52;2.00;99.90
24207;DHT22;12351;52.284;9.160;2023-02-26T18:36:43;1.90;1.00
24207;DHT22;12351;52.284;9.160;2023-02-26T18:39:35;1.90;1.00
24207;DHT22;12351;52.284;9.160;2023-02-26T18:42:25;1.80;40.10
24207;DHT22;12351;52.284;9.160;2023-02-26T18:45:21;1.80;1.00
24207;DHT22;12351;52.284;9.160;2023-02-26T18:48:12;1.80;1.00
24207;DHT22;12351;52.284;9.160;2023-02-26T18:51:01;1.80;99.90
24207;DHT22;12351;52.284;9.160;2023-02-26T18:53:52;1.80;99.90
24207;DHT22;12351;52.284;9.160;2023-02-26T18:56:41;1.70;1.00
24207;DHT22;12351;52.284;9.160;2023-02-26T18:59:33;1.70;1.00
24207;DHT22;12351;52.284;9.160;2023-02-26T19:02:23;1.60;1.00
24207;DHT22;12351;52.284;9.160;2023-02-26T19:05:10;1.50;99.90
24207;DHT22;12351;52.284;9.160;2023-02-26T19:08:00;1.50;99.90
24207;DHT22;12351;52.284;9.160;2023-02-26T19:10:51;1.50;1.00
24207;DHT22;12351;52.284;9.160;2023-02-26T19:13:42;1.50;1.00
24207;DHT22;12351;52.284;9.160;2023-02-26T19:16:30;1.40;99.90
24207;DHT22;12351;52.284;9.160;2023-02-26T19:19:21;1.30;1.00
24207;DHT22;12351;52.284;9.160;2023-02-26T19:22:12;1.20;1.00
24207;DHT22;12351;52.284;9.160;2023-02-26T19:25:05;1.10;12.80
24207;DHT22;12351;52.284;9.160;2023-02-26T19:27:59;1.00;99.90
24207;DHT22;12351;52.284;9.160;2023-02-26T19:30:52;0.80;99.90
24207;DHT22;12351;52.284;9.160;2023-02-26T19:33:42;0.80;99.90
24207;DHT22;12351;52.284;9.160;2023-02-26T19:36:34;0.80;1.00
24207;DHT22;12351;52.284;9.160;2023-02-26T19:39:23;0.80;1.00
24207;DHT22;12351;52.284;9.160;2023-02-26T19:42:13;0.70;1.00
24207;DHT22;12351;52.284;9.160;2023-02-26T19:45:02;0.60;1.00
24207;DHT22;12351;52.284;9.160;2023-02-26T19:47:52;0.60;1.00
24207;DHT22;12351;52.284;9.160;2023-02-26T19:50:42;0.50;1.00
24207;DHT22;12351;52.284;9.160;2023-02-26T19:53:32;0.60;1.00
24207;DHT22;12351;52.284;9.160;2023-02-26T19:56:25;0.40;1.00
24207;DHT22;12351;52.284;9.160;2023-02-26T19:59:14;0.50;1.00
24207;DHT22;12351;52.284;9.160;2023-02-26T20:02:05;0.50;1.00
24207;DHT22;12351;52.284;9.160;2023-02-26T20:04:54;0.40;1.00
24207;DHT22;12351;52.284;9.160;2023-02-26T20:07:43;0.40;1.00
24207;DHT22;12351;52.284;9.160;2023-02-26T20:10:34;0.30;1.00
24207;DHT22;12351;52.284;9.160;2023-02-26T20:13:24;0.30;1.00
24207;DHT22;12351;52.284;9.160;2023-02-26T20:16:16;0.30;1.00
24207;DHT22;12351;52.284;9.160;2023-02-26T20:19:06;0.20;1.00
24207;DHT22;12351;52.284;9.160;2023-02-26T20:21:57;0.20;1.00
24207;DHT22;12351;52.284;9.160;2023-02-26T20:24:46;0.10;1.00
24207;DHT22;12351;52.284;9.160;2023-02-26T20:27:37;0.10;1.00
24207;DHT22;12351;52.284;9.160;2023-02-26T20:30:28;0.00;1.00
24207;DHT22;12351;52.284;9.160;2023-02-26T20:33:21;0.00;1.00
24207;DHT22;12351;52.284;9.160;2023-02-26T20:36:11;0.10;1.00
24207;DHT22;12351;52.284;9.160;2023-02-26T20:39:00;0.10;1.00
24207;DHT22;12351;52.284;9.160;2023-02-26T20:41:50;0.10;1.00
24207;DHT22;12351;52.284;9.160;2023-02-26T20:44:40;0.10;1.00
24207;DHT22;12351;52.284;9.160;2023-02-26T20:47:32;0.00;1.00
24207;DHT22;12351;52.284;9.160;2023-02-26T20:50:23;0.00;1.00
24207;DHT22;12351;52.284;9.160;2023-02-26T20:53:12;-0.10;1.00
24207;DHT22;12351;52.284;9.160;2023-02-26T20:56:05;-0.10;1.00
24207;DHT22;12351;52.284;9.160;2023-02-26T20:58:54;0.00;1.00
24207;DHT22;12351;52.284;9.160;2023-02-26T21:01:44;-0.10;1.00
24207;DHT22;12351;52.284;9.160;2023-02-26T21:04:33;-0.10;1.00
24207;DHT22;12351;52.284;9.160;2023-02-26T21:07:25;-0.10;1.00
24207;DHT22;12351;52.284;9.160;2023-02-26T21:10:16;-0.10;1.00
24207;DHT22;12351;52.284;9.160;2023-02-26T21:13:06;-0.20;1.00
24207;DHT22;12351;52.284;9.160;2023-02-26T21:15:59;-0.10;1.00
24207;DHT22;12351;52.284;9.160;2023-02-26T21:18:48;-0.10;1.00
24207;DHT22;12351;52.284;9.160;2023-02-26T21:21:38;-0.10;1.00
24207;DHT22;12351;52.284;9.160;2023-02-26T21:24:32;-0.10;1.00
24207;DHT22;12351;52.284;9.160;2023-02-26T21:27:21;-0.20;1.00
24207;DHT22;12351;52.284;9.160;2023-02-26T21:30:11;-0.20;1.00